Time;durP1;ratioP1;P1;durP2;ratioP2;P2;SDS_P1;SDS_P2;PMS_P1;PMS_P2;Temp;Humidity;BMP_temperature;BMP_pressure;BME280_temperature;BME280_humidity;BME280_pressure;Samples;Min_cycle;Max_cycle;Signal;HPM_P1;HPM_P2
2022/06/08 00:02:17;;;;;;;10.57;9.38;;;15.60;99.90;;;;;;5078487;28;20036;-67
2022/06/08 00:04:43;;;;;;;11.07;8.98;;;15.70;99.90;;;;;;5078543;28;20043;-68
2022/06/08 00:07:09;;;;;;;9.57;8.45;;;15.70;99.90;;;;;;5078355;28;20032;-67
2022/06/08 00:09:35;;;;;;;11.43;8.80;;;15.80;99.90;;;;;;5078937;28;20039;-67
2022/06/08 00:12:03;;;;;;;10.00;8.82;;;15.90;99.90;;;;;;5078532;28;20296;-67
2022/06/08 00:14:28;;;;;;;8.15;7.32;;;16.00;99.90;;;;;;5078228;28;20388;-67
2022/06/08 00:16:54;;;;;;;8.82;7.93;;;16.10;99.90;;;;;;5077645;28;20114;-68
2022/06/08 00:19:20;;;;;;;11.25;7.53;;;16.10;99.90;;;;;;5078704;28;20017;-67
2022/06/08 00:21:46;;;;;;;7.50;6.80;;;16.10;99.90;;;;;;5078493;28;20036;-68
2022/06/08 00:24:11;;;;;;;8.93;5.82;;;16.10;99.90;;;;;;5078215;28;20041;-68
2022/06/08 00:26:37;;;;;;;6.78;6.07;;;16.10;99.90;;;;;;5077280;28;20036;-68
2022/06/08 00:29:04;;;;;;;7.78;5.68;;;16.10;99.90;;;;;;5077993;28;20038;-67
2022/06/08 00:31:31;;;;;;;7.43;5.28;;;16.00;99.90;;;;;;5077039;28;20029;-67
2022/06/08 00:33:57;;;;;;;5.28;4.78;;;16.10;99.90;;;;;;5077906;28;20380;-67
2022/06/08 00:36:23;;;;;;;5.25;4.30;;;16.20;99.90;;;;;;5077742;28;20360;-67
2022/06/08 00:38:49;;;;;;;4.22;3.88;;;16.30;99.90;;;;;;5061119;28;20119;-67
2022/06/08 00:41:48;;;;;;;4.55;4.15;;;16.30;99.90;;;;;;5077106;28;20105;-67
2022/06/08 00:44:23;;;;;;;8.45;4.80;;;16.40;99.90;;;;;;5078255;28;20020;-68
2022/06/08 00:46:51;;;;;;;7.05;4.43;;;16.50;99.90;;;;;;5077663;28;20498;-67
2022/06/08 00:49:23;;;;;;;4.93;4.18;;;16.40;99.90;;;;;;5076758;28;20292;-67
2022/06/08 00:51:49;;;;;;;5.57;3.58;;;16.40;99.90;;;;;;5077324;28;20044;-68
2022/06/08 00:54:30;;;;;;;5.32;3.40;;;16.30;99.90;;;;;;5077881;28;20246;-67
2022/06/08 00:57:18;;;;;;;4.35;2.95;;;16.30;99.90;;;;;;5076740;28;20040;-67
2022/06/08 00:59:54;;;;;;;4.60;3.03;;;16.20;99.90;;;;;;5078059;28;20036;-68
2022/06/08 01:02:20;;;;;;;3.60;3.30;;;16.20;99.90;;;;;;5077341;28;20040;-68
2022/06/08 01:04:48;;;;;;;3.92;3.00;;;16.10;99.90;;;;;;5076596;28;20048;-67
2022/06/08 01:07:20;;;;;;;3.88;2.78;;;16.20;99.90;;;;;;5076430;28;20036;-68
2022/06/08 01:09:49;;;;;;;4.20;3.00;;;16.30;99.90;;;;;;5076751;28;20036;-67
2022/06/08 01:12:18;;;;;;;5.90;3.03;;;16.20;99.90;;;;;;5076300;28;20089;-67
2022/06/08 01:14:49;;;;;;;4.35;3.30;;;16.20;99.90;;;;;;5076746;28;20020;-68
2022/06/08 01:17:19;;;;;;;5.60;3.28;;;16.10;99.90;;;;;;5076407;28;20048;-68
2022/06/08 01:19:49;;;;;;;6.20;3.55;;;16.10;99.90;;;;;;5076399;28;20028;-68
2022/06/08 01:22:19;;;;;;;4.63;3.72;;;16.20;99.90;;;;;;5077023;28;20078;-68
2022/06/08 01:24:51;;;;;;;4.90;3.25;;;16.20;99.90;;;;;;5076395;28;20350;-68
2022/06/08 01:27:25;;;;;;;3.95;3.55;;;16.20;99.90;;;;;;5076031;28;20083;-68
2022/06/08 01:30:23;;;;;;;6.68;3.80;;;16.20;99.90;;;;;;5077864;28;20037;-67
2022/06/08 01:33:17;;;;;;;4.50;4.10;;;16.10;99.90;;;;;;5076903;28;20415;-68
2022/06/08 01:35:56;;;;;;;5.05;3.78;;;16.00;99.90;;;;;;5077569;28;20039;-68
2022/06/08 01:38:49;;;;;;;5.85;3.72;;;15.90;99.90;;;;;;5077049;28;20202;-68
2022/06/08 01:41:21;;;;;;;8.02;4.95;;;15.90;99.90;;;;;;5077439;28;20058;-68
2022/06/08 01:44:28;;;;;;;7.38;5.53;;;16.00;99.90;;;;;;5076191;28;20120;-68
2022/06/08 01:47:26;;;;;;;5.63;5.10;;;16.00;99.90;;;;;;5076100;28;20029;-68
2022/06/08 01:50:11;;;;;;;10.10;5.70;;;16.00;99.90;;;;;;5076173;28;20089;-68
2022/06/08 01:52:52;;;;;;;6.65;5.43;;;16.00;99.90;;;;;;5075850;28;20040;-68
2022/06/08 01:55:49;;;;;;;7.80;6.55;;;16.00;99.90;;;;;;5059526;28;20039;-68
2022/06/08 01:58:42;;;;;;;5.72;5.20;;;15.90;99.90;;;;;;5075958;28;20031;-68
2022/06/08 02:01:44;;;;;;;6.70;5.82;;;15.80;99.90;;;;;;5076028;28;20025;-68
2022/06/08 02:04:19;;;;;;;7.68;5.97;;;15.80;99.90;;;;;;5076035;28;20327;-69
2022/06/08 02:07:17;;;;;;;7.15;6.20;;;15.70;99.90;;;;;;5076628;28;20149;-69
2022/06/08 02:10:02;;;;;;;6.47;5.80;;;15.70;99.90;;;;;;5076785;28;20025;-69
2022/06/08 02:12:33;;;;;;;6.78;6.10;;;15.70;99.90;;;;;;5075794;28;20059;-68
2022/06/08 02:15:22;;;;;;;7.70;5.72;;;15.60;99.90;;;;;;5075772;28;20029;-71
2022/06/08 02:17:51;;;;;;;7.28;5.85;;;15.60;99.90;;;;;;5075801;28;20021;-70
2022/06/08 02:20:26;;;;;;;6.93;5.57;;;15.70;99.90;;;;;;5075829;28;20029;-69
2022/06/08 02:23:02;;;;;;;7.53;5.47;;;15.70;99.90;;;;;;5075842;28;20040;-69
2022/06/08 02:25:36;;;;;;;5.63;5.07;;;15.60;99.90;;;;;;5076303;28;20036;-69
2022/06/08 02:28:06;;;;;;;9.95;5.57;;;15.60;99.90;;;;;;5075635;28;20033;-69
2022/06/08 02:30:50;;;;;;;5.40;4.70;;;15.50;99.90;;;;;;5075740;28;20040;-69
2022/06/08 02:36:35;;;;;;;7.75;4.88;;;15.60;99.90;;;;;;5075748;28;19932;-69
2022/06/08 02:39:23;;;;;;;6.03;4.82;;;15.50;99.90;;;;;;5077259;28;20300;-68
2022/06/08 02:41:53;;;;;;;7.10;4.68;;;15.50;99.90;;;;;;5080068;28;20085;-68
2022/06/08 02:44:24;;;;;;;5.65;4.95;;;15.50;99.90;;;;;;5080018;28;20052;-68
2022/06/08 02:47:04;;;;;;;9.43;5.50;;;15.40;99.90;;;;;;5079304;28;20043;-69
2022/06/08 02:49:36;;;;;;;6.88;4.45;;;15.50;99.90;;;;;;5079231;28;20032;-69
2022/06/08 02:52:11;;;;;;;4.70;4.30;;;15.50;99.90;;;;;;5079044;28;20124;-68
2022/06/08 02:54:38;;;;;;;7.00;4.40;;;15.40;99.90;;;;;;5079106;28;20271;-67
2022/06/08 02:57:14;;;;;;;4.82;4.40;;;15.30;99.90;;;;;;5079103;28;20056;-68
2022/06/08 02:59:49;;;;;;;6.78;4.50;;;15.30;99.90;;;;;;5079051;28;20304;-68
2022/06/08 03:02:38;;;;;;;4.50;4.07;;;15.30;99.90;;;;;;5079051;28;20036;-69
2022/06/08 03:05:13;;;;;;;5.82;4.25;;;15.30;99.90;;;;;;5078929;28;20044;-68
2022/06/08 03:08:05;;;;;;;4.60;4.20;;;15.20;99.90;;;;;;5079562;28;20074;-68
2022/06/08 03:10:36;;;;;;;5.43;3.75;;;15.20;99.90;;;;;;5073403;28;20036;-69
2022/06/08 03:13:16;;;;;;;4.28;3.80;;;15.20;99.90;;;;;;5078671;28;20111;-69
2022/06/08 03:15:50;;;;;;;6.10;3.85;;;15.30;99.90;;;;;;5078658;28;20088;-68
2022/06/08 03:18:16;;;;;;;5.50;3.72;;;15.30;99.90;;;;;;5079450;28;20031;-69
2022/06/08 03:20:43;;;;;;;6.55;4.05;;;15.20;99.90;;;;;;5078592;28;20367;-69
2022/06/08 03:23:08;;;;;;;6.95;3.92;;;15.30;99.90;;;;;;5079527;28;20380;-69
2022/06/08 03:25:36;;;;;;;5.82;3.97;;;15.20;99.90;;;;;;5078349;28;20041;-69
2022/06/08 03:28:03;;;;;;;8.38;4.50;;;15.20;99.90;;;;;;5079007;28;20388;-69
2022/06/08 03:30:29;;;;;;;5.57;4.18;;;15.20;99.90;;;;;;5079172;28;20024;-69
2022/06/08 03:32:58;;;;;;;5.63;4.40;;;15.20;99.90;;;;;;5062110;28;20116;-69
2022/06/08 03:35:24;;;;;;;6.85;4.20;;;15.20;99.90;;;;;;5061808;28;20340;-69
2022/06/08 03:37:50;;;;;;;6.07;4.15;;;15.10;99.90;;;;;;5078989;28;20052;-69
2022/06/08 03:40:18;;;;;;;5.95;4.18;;;15.00;99.90;;;;;;5061764;28;20038;-69
2022/06/08 03:42:44;;;;;;;5.35;4.22;;;14.90;99.90;;;;;;5078893;28;20108;-69
2022/06/08 03:45:10;;;;;;;9.23;4.72;;;14.90;99.90;;;;;;5078501;28;20106;-69
2022/06/08 03:47:46;;;;;;;24.58;16.35;;;15.00;99.90;;;;;;5077649;28;20224;-69
2022/06/08 03:50:24;;;;;;;9.95;5.75;;;15.10;99.90;;;;;;5078900;28;20345;-68
2022/06/08 03:53:00;;;;;;;8.82;4.72;;;15.20;99.90;;;;;;5078464;28;20052;-69
2022/06/08 03:55:29;;;;;;;7.05;4.05;;;15.20;99.90;;;;;;5078004;28;20036;-68
2022/06/08 03:57:56;;;;;;;6.30;3.65;;;15.00;99.90;;;;;;5061422;28;20025;-69
2022/06/08 04:00:24;;;;;;;4.22;3.78;;;14.90;99.90;;;;;;5079101;28;20040;-68
2022/06/08 04:03:03;;;;;;;5.32;4.07;;;15.10;99.90;;;;;;5062787;28;20119;-69
2022/06/08 04:05:31;;;;;;;4.53;3.63;;;15.00;99.90;;;;;;5077826;28;20036;-68
2022/06/08 04:07:58;;;;;;;7.20;4.22;;;15.10;99.90;;;;;;5061290;28;20047;-68
2022/06/08 04:10:25;;;;;;;7.32;4.05;;;15.20;99.90;;;;;;5077820;28;20028;-69
2022/06/08 04:12:55;;;;;;;7.00;3.97;;;15.30;99.90;;;;;;5077470;28;20085;-69
2022/06/08 04:18:07;;;;;;;5.65;3.80;;;15.30;99.90;;;;;;5077533;28;20040;-69
2022/06/08 04:20:35;;;;;;;5.30;3.55;;;15.30;99.90;;;;;;5077480;28;20024;-69
2022/06/08 04:23:01;;;;;;;5.82;3.60;;;15.40;99.90;;;;;;5077483;28;20056;-69
2022/06/08 04:25:27;;;;;;;5.43;3.55;;;15.50;99.90;;;;;;5077393;28;20056;-69
2022/06/08 04:27:53;;;;;;;4.70;3.90;;;15.40;99.90;;;;;;5078103;28;20063;-69
2022/06/08 04:30:20;;;;;;;6.18;3.63;;;15.40;99.90;;;;;;5077300;28;20025;-68
2022/06/08 04:32:47;;;;;;;8.75;3.63;;;15.50;99.90;;;;;;5077015;28;20041;-69
2022/06/08 04:35:15;;;;;;;6.28;3.20;;;15.40;99.90;;;;;;5060792;28;20112;-69
2022/06/08 04:37:41;;;;;;;5.90;3.60;;;15.30;99.90;;;;;;5077815;28;20029;-69
2022/06/08 04:40:10;;;;;;;5.90;3.45;;;15.30;99.90;;;;;;5078443;28;20036;-68
2022/06/08 04:42:37;;;;;;;5.22;3.20;;;15.30;99.90;;;;;;5076988;28;20132;-68
2022/06/08 04:45:05;;;;;;;5.32;3.10;;;15.30;99.90;;;;;;5078263;28;20032;-69
2022/06/08 04:47:32;;;;;;;6.40;3.42;;;15.30;99.90;;;;;;5076820;28;20056;-69
2022/06/08 04:49:58;;;;;;;4.70;3.55;;;15.30;99.90;;;;;;5076887;28;20055;-68
2022/06/08 04:52:25;;;;;;;6.57;3.97;;;15.30;99.90;;;;;;5060102;28;20055;-68
2022/06/08 04:54:52;;;;;;;6.20;3.88;;;15.40;99.90;;;;;;5076738;28;20021;-69
2022/06/08 04:57:18;;;;;;;8.35;3.70;;;15.60;99.90;;;;;;5076708;28;20052;-69
2022/06/08 04:59:46;;;;;;;6.20;3.40;;;15.70;99.90;;;;;;5076987;28;20064;-68
2022/06/08 05:02:42;;;;;;;5.55;3.40;;;15.80;99.90;;;;;;5076032;28;20044;-69
2022/06/08 05:05:05;;;;;;;7.97;3.50;;;15.90;99.90;;;;;;5076907;28;20052;-69
2022/06/08 05:07:33;;;;;;;4.82;3.20;;;15.90;99.90;;;;;;5060246;28;20032;-68
2022/06/08 05:09:59;;;;;;;5.70;3.10;;;15.90;99.90;;;;;;5076365;28;20090;-68
2022/06/08 05:12:26;;;;;;;3.80;2.75;;;15.90;99.90;;;;;;5076475;28;20125;-68
2022/06/08 05:14:52;;;;;;;3.53;2.67;;;15.90;99.90;;;;;;5077264;28;20058;-69
2022/06/08 05:17:18;;;;;;;4.30;2.85;;;16.10;99.90;;;;;;5076396;28;20296;-69
2022/06/08 05:19:45;;;;;;;3.95;2.60;;;16.20;99.90;;;;;;5076438;28;20036;-68
2022/06/08 05:22:11;;;;;;;4.95;2.65;;;16.30;99.90;;;;;;5076337;28;20036;-68
2022/06/08 05:24:38;;;;;;;3.22;2.55;;;16.40;99.90;;;;;;5077055;28;20028;-70
2022/06/08 05:27:04;;;;;;;4.22;2.60;;;16.40;99.90;;;;;;5076252;28;20059;-68
2022/06/08 05:29:30;;;;;;;5.82;2.75;;;16.70;99.90;;;;;;5076296;28;20032;-68
2022/06/08 05:32:00;;;;;;;4.72;2.85;;;16.60;99.90;;;;;;5076220;28;20043;-68
2022/06/08 05:34:28;;;;;;;4.95;2.60;;;16.70;99.90;;;;;;5076513;28;20440;-69
2022/06/08 05:36:54;;;;;;;4.03;2.15;;;16.70;99.90;;;;;;5076181;28;20052;-68
2022/06/08 05:39:23;;;;;;;4.55;2.20;;;16.50;99.90;;;;;;5060151;28;20052;-69
2022/06/08 05:41:49;;;;;;;4.00;2.33;;;16.50;99.90;;;;;;5076058;28;20032;-68
2022/06/08 05:44:19;;;;;;;4.85;2.50;;;16.50;99.90;;;;;;5076066;28;20100;-69
2022/06/08 05:46:48;;;;;;;6.85;2.63;;;16.50;99.90;;;;;;5076094;28;20119;-68
2022/06/08 05:49:15;;;;;;;5.05;2.30;;;16.70;99.90;;;;;;5076291;28;20119;-69
2022/06/08 05:51:45;;;;;;;6.00;2.95;;;16.70;99.90;;;;;;5075775;28;20049;-69
2022/06/08 05:54:12;;;;;;;7.25;2.17;;;16.60;99.90;;;;;;5075950;28;20112;-68
2022/06/08 05:56:40;;;;;;;4.72;2.22;;;16.60;99.90;;;;;;5075890;28;20021;-68
2022/06/08 05:59:07;;;;;;;5.93;2.35;;;16.60;99.90;;;;;;5075903;28;20127;-68
2022/06/08 06:01:36;;;;;;;6.40;2.53;;;16.50;99.90;;;;;;5075875;28;20028;-66
2022/06/08 06:04:05;;;;;;;5.65;2.58;;;16.40;99.90;;;;;;5076495;28;20025;-68
2022/06/08 06:06:31;;;;;;;6.45;2.40;;;16.40;99.90;;;;;;5059246;28;20098;-68
2022/06/08 06:09:01;;;;;;;5.65;2.45;;;16.50;99.90;;;;;;5077062;28;20025;-68
2022/06/08 06:11:27;;;;;;;3.45;2.42;;;16.70;99.90;;;;;;5075845;28;20028;-68
2022/06/08 06:13:53;;;;;;;5.68;2.42;;;16.90;99.90;;;;;;5077949;28;20296;-69
2022/06/08 06:16:20;;;;;;;7.50;2.35;;;16.80;99.90;;;;;;5079722;28;20028;-68
2022/06/08 06:18:49;;;;;;;5.50;2.67;;;16.80;99.90;;;;;;5079849;28;20290;-66
2022/06/08 06:21:41;;;;;;;11.48;2.28;;;16.70;99.90;;;;;;5079220;28;20033;-66
2022/06/08 06:24:33;;;;;;;8.70;3.10;;;16.90;99.90;;;;;;5079901;28;20041;-66
2022/06/08 06:27:18;;;;;;;7.30;2.63;;;16.90;99.90;;;;;;5079736;28;20374;-67
2022/06/08 06:30:13;;;;;;;7.05;2.30;;;16.80;99.90;;;;;;5079668;28;20021;-68
2022/06/08 06:32:47;;;;;;;4.55;1.92;;;16.90;99.90;;;;;;5079480;28;20036;-68
2022/06/08 06:35:26;;;;;;;6.70;2.85;;;17.00;99.90;;;;;;5062995;28;20039;-67
2022/06/08 06:37:56;;;;;;;6.05;2.30;;;17.00;99.90;;;;;;5080002;28;20032;-67
2022/06/08 06:40:22;;;;;;;6.50;2.25;;;17.00;99.90;;;;;;5080686;28;20044;-67
2022/06/08 06:42:49;;;;;;;4.90;2.28;;;17.00;99.90;;;;;;5079606;28;20043;-68
2022/06/08 06:45:34;;;;;;;6.78;2.10;;;17.00;99.90;;;;;;5080394;28;20488;-69
2022/06/08 06:48:20;;;;;;;7.15;2.35;;;17.10;99.90;;;;;;5072156;28;20115;-69
2022/06/08 06:50:46;;;;;;;6.70;2.08;;;17.00;99.90;;;;;;5079237;28;20136;-68
2022/06/08 06:53:13;;;;;;;7.55;2.28;;;17.00;99.90;;;;;;5079621;28;20076;-69
2022/06/08 06:55:44;;;;;;;8.48;2.33;;;17.30;99.90;;;;;;5079027;28;20060;-67
2022/06/08 06:58:15;;;;;;;7.03;2.10;;;17.10;99.90;;;;;;5079137;28;20116;-67
2022/06/08 07:00:41;;;;;;;7.63;1.95;;;17.10;99.90;;;;;;5079227;28;20124;-68
2022/06/08 07:03:09;;;;;;;6.22;2.28;;;17.10;99.90;;;;;;5078843;28;20123;-69
2022/06/08 07:05:37;;;;;;;7.68;2.75;;;17.30;99.90;;;;;;5078977;28;20048;-68
2022/06/08 07:08:05;;;;;;;7.45;2.40;;;17.30;99.90;;;;;;5078935;28;20040;-66
2022/06/08 07:10:31;;;;;;;5.13;2.38;;;17.20;99.90;;;;;;5078923;28;20024;-66
2022/06/08 07:12:58;;;;;;;8.38;2.33;;;17.00;99.90;;;;;;5079359;28;20060;-66
2022/06/08 07:15:24;;;;;;;8.15;2.20;;;17.00;99.90;;;;;;5079495;28;20416;-65
2022/06/08 07:17:51;;;;;;;5.70;2.30;;;16.90;99.90;;;;;;5078460;28;20025;-66
2022/06/08 07:20:19;;;;;;;5.95;2.30;;;16.80;99.90;;;;;;5078392;28;20052;-68
2022/06/08 07:22:47;;;;;;;10.95;2.40;;;16.80;99.90;;;;;;5078397;28;20273;-69
2022/06/08 07:25:14;;;;;;;6.97;2.33;;;16.90;99.90;;;;;;5078763;28;20109;-67
2022/06/08 07:27:41;;;;;;;7.28;2.10;;;16.80;99.90;;;;;;5079450;28;20416;-66
2022/06/08 07:30:08;;;;;;;11.25;2.50;;;16.80;99.90;;;;;;5079155;28;20038;-67
2022/06/08 07:32:35;;;;;;;7.57;2.50;;;16.70;99.90;;;;;;5078906;28;20032;-68
2022/06/08 07:35:02;;;;;;;7.25;2.60;;;16.80;99.90;;;;;;5079213;28;20059;-67
2022/06/08 07:37:28;;;;;;;9.07;2.40;;;16.80;99.90;;;;;;5079057;28;20098;-66
2022/06/08 07:39:54;;;;;;;5.95;2.22;;;16.70;99.90;;;;;;5079088;28;20028;-65
2022/06/08 07:42:21;;;;;;;10.20;2.95;;;16.70;99.90;;;;;;5079059;28;20036;-67
2022/06/08 07:44:47;;;;;;;9.23;2.60;;;16.60;99.90;;;;;;5078190;28;20312;-65
2022/06/08 07:47:14;;;;;;;13.07;3.10;;;16.70;99.90;;;;;;5078116;28;20102;-66
2022/06/08 07:49:41;;;;;;;8.65;2.95;;;16.60;99.90;;;;;;5079485;28;20039;-68
2022/06/08 07:52:17;;;;;;;7.15;2.65;;;16.70;99.90;;;;;;5078719;28;20312;-64
2022/06/08 07:54:44;;;;;;;10.85;3.17;;;16.70;99.90;;;;;;5078816;28;20028;-68
2022/06/08 07:57:23;;;;;;;11.68;3.20;;;16.80;99.90;;;;;;5061475;28;20327;-66
2022/06/08 07:59:49;;;;;;;7.38;2.88;;;16.70;99.90;;;;;;5078790;28;20075;-64
2022/06/08 08:02:15;;;;;;;9.98;2.88;;;16.60;99.90;;;;;;5078820;28;20040;-64
2022/06/08 08:04:42;;;;;;;8.20;2.70;;;16.60;99.90;;;;;;5061350;28;20029;-64
2022/06/08 08:07:09;;;;;;;8.07;2.40;;;16.50;99.90;;;;;;5077775;28;20040;-66
2022/06/08 08:09:37;;;;;;;8.27;2.60;;;16.60;99.90;;;;;;5061290;28;20430;-67
2022/06/08 08:12:03;;;;;;;6.07;2.67;;;16.70;99.90;;;;;;5078330;28;20036;-66
2022/06/08 08:14:33;;;;;;;7.93;2.42;;;16.80;99.90;;;;;;5077600;28;20021;-63
2022/06/08 08:17:00;;;;;;;8.52;3.13;;;16.80;99.90;;;;;;5077683;28;20400;-68
2022/06/08 08:19:25;;;;;;;8.48;2.55;;;16.70;99.90;;;;;;5077626;28;20448;-66
2022/06/08 08:21:52;;;;;;;10.50;2.90;;;16.70;99.90;;;;;;5077827;28;20048;-65
2022/06/08 08:24:18;;;;;;;11.02;2.65;;;16.50;99.90;;;;;;5077528;28;20303;-64
2022/06/08 08:26:46;;;;;;;6.88;3.13;;;16.40;99.90;;;;;;5077403;28;20032;-67
2022/06/08 08:29:13;;;;;;;11.80;3.08;;;16.30;99.90;;;;;;5061063;28;20297;-66
2022/06/08 08:31:39;;;;;;;9.55;3.00;;;16.20;99.90;;;;;;5077980;28;20024;-63
2022/06/08 08:34:06;;;;;;;9.02;3.33;;;16.20;99.90;;;;;;5078022;28;20037;-64
2022/06/08 08:36:31;;;;;;;8.98;3.40;;;16.10;99.90;;;;;;5077552;28;20044;-65
2022/06/08 08:39:00;;;;;;;7.05;3.22;;;16.10;99.90;;;;;;5077960;28;20304;-66
2022/06/08 08:44:27;;;;;;;7.25;2.78;;;16.00;99.90;;;;;;5078489;28;20085;-63
2022/06/08 08:47:10;;;;;;;8.30;2.67;;;15.80;99.90;;;;;;5077782;28;20028;-66
2022/06/08 08:49:42;;;;;;;6.60;2.83;;;15.70;99.90;;;;;;5077741;28;20035;-67
2022/06/08 08:52:31;;;;;;;11.88;2.70;;;15.70;99.90;;;;;;5077415;28;20072;-64
2022/06/08 08:55:05;;;;;;;5.97;2.28;;;15.70;99.90;;;;;;5077634;28;20090;-67
2022/06/08 08:57:43;;;;;;;5.30;2.63;;;15.70;99.90;;;;;;5077759;28;20372;-67
2022/06/08 09:00:37;;;;;;;9.93;2.33;;;15.50;99.90;;;;;;5077526;28;20061;-65
2022/06/08 09:03:34;;;;;;;9.52;2.35;;;15.30;99.90;;;;;;5076855;28;20032;-68
2022/06/08 09:06:13;;;;;;;7.25;2.00;;;15.20;99.90;;;;;;5077477;28;20028;-70
2022/06/08 09:08:40;;;;;;;4.25;1.70;;;15.10;99.90;;;;;;5076702;28;20452;-66
2022/06/08 09:11:26;;;;;;;3.80;1.80;;;15.00;99.90;;;;;;5076667;28;20058;-66
2022/06/08 09:14:05;;;;;;;9.07;2.45;;;15.00;99.90;;;;;;5077234;28;20036;-64
2022/06/08 09:16:38;;;;;;;10.57;2.80;;;15.00;99.90;;;;;;5077582;28;20032;-63
2022/06/08 09:19:22;;;;;;;7.75;2.47;;;15.10;99.90;;;;;;5077572;28;20025;-65
2022/06/08 09:22:01;;;;;;;6.15;2.58;;;15.10;99.90;;;;;;5077210;28;20016;-65
2022/06/08 09:24:39;;;;;;;6.18;2.40;;;15.10;99.90;;;;;;5077222;28;20020;-66
2022/06/08 09:27:33;;;;;;;6.55;2.42;;;15.10;99.90;;;;;;5077472;28;20349;-67
2022/06/08 09:30:05;;;;;;;6.28;2.65;;;15.20;99.90;;;;;;5075412;28;20295;-67
2022/06/08 09:32:43;;;;;;;8.50;3.20;;;15.30;99.90;;;;;;5077019;28;20115;-66
2022/06/08 09:35:15;;;;;;;8.90;2.78;;;15.60;99.90;;;;;;5077076;28;20051;-67
2022/06/08 09:37:42;;;;;;;7.13;2.70;;;15.60;99.90;;;;;;5076259;28;20038;-68
2022/06/08 09:43:10;;;;;;;4.50;2.83;;;15.50;99.90;;;;;;5076987;28;20044;-70
2022/06/08 09:45:50;;;;;;;6.82;3.25;;;15.40;99.90;;;;;;5077214;28;20296;-68
2022/06/08 09:51:53;;;;;;;9.98;3.17;;;15.60;99.90;;;;;;5076612;28;20036;-65
2022/06/08 09:54:33;;;;;;;8.27;3.30;;;15.90;99.90;;;;;;5069297;28;20131;-63
2022/06/08 09:57:27;;;;;;;7.65;3.25;;;15.70;99.90;;;;;;5077072;28;20040;-63
2022/06/08 10:00:30;;;;;;;8.43;3.60;;;15.70;99.90;;;;;;5076013;28;20300;-62
2022/06/08 10:03:11;;;;;;;8.48;4.25;;;15.90;99.90;;;;;;5076704;28;20043;-61
2022/06/08 10:05:48;;;;;;;7.07;4.10;;;16.20;99.90;;;;;;5076894;28;20404;-59
2022/06/08 10:08:24;;;;;;;9.50;3.75;;;16.20;99.90;;;;;;5076609;28;20056;-59
2022/06/08 10:11:34;;;;;;;8.25;4.03;;;15.90;99.90;;;;;;5076702;28;20269;-58
2022/06/08 10:13:58;;;;;;;8.55;4.00;;;15.80;99.90;;;;;;5076472;28;20094;-58
2022/06/08 10:16:28;;;;;;;9.15;3.88;;;16.00;99.90;;;;;;5077142;28;20040;-58
2022/06/08 10:18:57;;;;;;;6.55;3.53;;;16.10;99.90;;;;;;5076572;28;20115;-57
2022/06/08 10:21:28;;;;;;;8.23;3.42;;;16.00;99.90;;;;;;5076544;28;20060;-56
2022/06/08 10:24:00;;;;;;;8.15;3.60;;;15.90;99.90;;;;;;5076504;28;20403;-56
2022/06/08 10:26:35;;;;;;;6.55;3.40;;;15.90;99.90;;;;;;5076875;28;20123;-55
2022/06/08 10:29:08;;;;;;;9.13;3.60;;;15.90;99.90;;;;;;5076551;28;20032;-55
2022/06/08 10:31:43;;;;;;;9.05;3.30;;;15.80;99.90;;;;;;5076298;28;20033;-55
2022/06/08 10:34:20;;;;;;;7.63;3.15;;;15.90;99.90;;;;;;5075702;28;20281;-55
2022/06/08 10:37:04;;;;;;;7.53;3.28;;;16.00;99.90;;;;;;5076523;28;20085;-55
2022/06/08 10:39:32;;;;;;;6.95;3.33;;;16.10;99.90;;;;;;5076432;28;20020;-58
2022/06/08 10:42:43;;;;;;;5.88;3.10;;;16.30;99.90;;;;;;5076111;28;20037;-55
2022/06/08 10:45:22;;;;;;;3.75;2.35;;;16.20;99.90;;;;;;5076587;28;20270;-55
2022/06/08 10:48:01;;;;;;;6.43;2.10;;;16.00;99.90;;;;;;5076263;28;20040;-57
2022/06/08 10:50:38;;;;;;;6.93;2.22;;;15.70;99.90;;;;;;5076326;28;20031;-56
2022/06/08 10:56:23;;;;;;;3.38;1.63;;;15.50;99.90;;;;;;5075398;28;20029;-58
2022/06/08 10:59:03;;;;;;;4.90;2.30;;;15.60;99.90;;;;;;5076456;28;20032;-59
2022/06/08 11:01:54;;;;;;;5.30;2.45;;;15.40;99.90;;;;;;5080170;28;20032;-59
2022/06/08 11:04:29;;;;;;;3.58;2.13;;;15.50;99.90;;;;;;5081166;28;20279;-58
2022/06/08 11:07:03;;;;;;;4.03;2.38;;;15.60;99.90;;;;;;5079614;28;20025;-58
2022/06/08 11:09:34;;;;;;;6.53;2.47;;;15.50;99.90;;;;;;5080015;28;20036;-58
2022/06/08 11:12:12;;;;;;;4.70;2.30;;;15.50;99.90;;;;;;5078921;28;20060;-59
2022/06/08 11:14:43;;;;;;;6.13;2.08;;;15.40;99.90;;;;;;5079613;28;20028;-58
2022/06/08 11:17:33;;;;;;;4.57;2.20;;;15.50;99.90;;;;;;5079522;28;20391;-59
2022/06/08 11:20:12;;;;;;;3.30;2.17;;;15.60;99.90;;;;;;5079518;28;20021;-59
2022/06/08 11:22:58;;;;;;;3.60;2.00;;;15.80;99.90;;;;;;5079355;28;20033;-61
2022/06/08 11:25:42;;;;;;;4.97;2.35;;;15.80;99.90;;;;;;5080016;28;20051;-60
2022/06/08 11:28:29;;;;;;;4.80;2.10;;;15.70;99.90;;;;;;5078574;28;20036;-60
2022/06/08 11:30:58;;;;;;;3.55;2.50;;;15.80;99.90;;;;;;5079268;28;20028;-61
2022/06/08 11:33:57;;;;;;;3.13;2.10;;;15.90;99.90;;;;;;5079147;28;20032;-60
2022/06/08 11:36:59;;;;;;;5.18;1.60;;;16.00;99.90;;;;;;5079280;28;20028;-66
2022/06/08 11:39:43;;;;;;;3.22;1.80;;;15.70;99.90;;;;;;5079143;28;20028;-59
2022/06/08 11:42:22;;;;;;;2.85;1.88;;;15.70;99.90;;;;;;5079272;28;20068;-60
2022/06/08 11:45:23;;;;;;;3.28;1.80;;;15.60;99.90;;;;;;5079107;28;20028;-62
2022/06/08 11:47:49;;;;;;;3.00;1.70;;;15.60;99.90;;;;;;5079280;28;20142;-61
2022/06/08 11:50:17;;;;;;;3.63;1.60;;;15.80;99.90;;;;;;5078327;28;20054;-64
2022/06/08 11:52:47;;;;;;;3.50;1.60;;;15.90;99.90;;;;;;5077780;28;20052;-69
2022/06/08 11:55:18;;;;;;;2.85;1.50;;;15.90;99.90;;;;;;5078867;28;20021;-69
2022/06/08 11:58:20;;;;;;;2.25;1.40;;;15.90;99.90;;;;;;5077945;28;20028;-70
2022/06/08 12:00:57;;;;;;;1.73;1.08;;;16.00;99.90;;;;;;5078383;28;20063;-65
2022/06/08 12:03:41;;;;;;;2.08;1.27;;;16.00;99.90;;;;;;5078665;28;20036;-64
2022/06/08 12:06:24;;;;;;;1.55;1.08;;;16.10;99.90;;;;;;5078626;28;20024;-68
2022/06/08 12:09:02;;;;;;;1.45;1.00;;;16.20;99.90;;;;;;5078536;28;20321;-66
2022/06/08 12:11:30;;;;;;;3.25;1.05;;;16.10;99.90;;;;;;5078413;28;20021;-65
2022/06/08 12:14:00;;;;;;;2.33;1.20;;;16.10;99.90;;;;;;5078321;28;20036;-68
2022/06/08 12:16:31;;;;;;;1.75;1.33;;;16.00;99.90;;;;;;5078498;28;20119;-67
2022/06/08 12:19:06;;;;;;;2.30;1.52;;;16.20;99.90;;;;;;5078269;28;20292;-68
2022/06/08 12:21:38;;;;;;;1.63;1.10;;;16.40;99.90;;;;;;5077633;28;20467;-64
2022/06/08 12:24:13;;;;;;;1.63;1.07;;;16.30;99.90;;;;;;5078209;28;20111;-63
2022/06/08 12:26:51;;;;;;;1.15;0.90;;;16.50;99.90;;;;;;5077585;28;20342;-63
2022/06/08 12:29:41;;;;;;;2.17;1.10;;;16.50;99.90;;;;;;5078061;28;20043;-65
2022/06/08 12:32:07;;;;;;;3.30;1.25;;;16.60;99.90;;;;;;5078246;28;20067;-64
2022/06/08 12:34:40;;;;;;;1.08;0.90;;;16.70;99.90;;;;;;5078012;28;20052;-64
2022/06/08 12:37:32;;;;;;;2.17;1.00;;;16.80;99.90;;;;;;5077819;28;20036;-69
2022/06/08 12:40:16;;;;;;;1.40;1.30;;;16.90;99.90;;;;;;5077566;28;20028;-66
2022/06/08 12:42:54;;;;;;;2.50;1.13;;;17.00;99.90;;;;;;5077973;28;20044;-67
2022/06/08 12:46:02;;;;;;;5.22;1.67;;;17.00;99.90;;;;;;5078410;28;20028;-67
2022/06/08 12:48:55;;;;;;;3.05;1.40;;;17.10;99.90;;;;;;5077252;28;20032;-62
2022/06/08 12:51:48;;;;;;;2.67;1.58;;;16.70;99.90;;;;;;5077634;28;20025;-68
2022/06/08 12:54:19;;;;;;;5.30;1.63;;;16.60;99.90;;;;;;5077197;28;20126;-62
2022/06/08 12:56:48;;;;;;;6.63;1.95;;;16.50;99.90;;;;;;5077718;28;20344;-67
2022/06/08 12:59:15;;;;;;;5.43;1.70;;;16.60;99.90;;;;;;5077711;28;20265;-65
2022/06/08 13:01:44;;;;;;;3.50;1.90;;;16.70;99.90;;;;;;5076865;28;20059;-65
2022/06/08 13:04:12;;;;;;;4.22;1.95;;;16.70;99.90;;;;;;5060590;28;20033;-63
2022/06/08 13:06:38;;;;;;;3.65;1.70;;;16.80;99.90;;;;;;5077469;28;20177;-64
2022/06/08 13:09:09;;;;;;;4.32;2.17;;;17.00;99.90;;;;;;5076909;28;20028;-68
2022/06/08 13:11:35;;;;;;;3.67;2.25;;;17.00;99.90;;;;;;5076705;28;20033;-73
2022/06/08 13:14:01;;;;;;;5.35;2.45;;;17.10;99.90;;;;;;5043722;28;20052;-64
2022/06/08 13:16:30;;;;;;;4.30;2.40;;;17.20;99.90;;;;;;5076730;28;20021;-64
2022/06/08 13:18:57;;;;;;;7.20;2.45;;;16.90;99.90;;;;;;5077379;28;20182;-64
2022/06/08 13:21:25;;;;;;;5.22;2.47;;;17.00;99.90;;;;;;5059876;28;20303;-63
2022/06/08 13:23:51;;;;;;;7.38;2.53;;;16.90;99.90;;;;;;5076804;28;20032;-61
2022/06/08 13:26:25;;;;;;;5.70;2.88;;;16.90;99.90;;;;;;5059821;28;20021;-61
2022/06/08 13:28:52;;;;;;;7.63;2.83;;;16.90;99.90;;;;;;5076661;28;20043;-60
2022/06/08 13:31:23;;;;;;;6.15;3.00;;;16.70;99.90;;;;;;5077481;28;20119;-69
2022/06/08 13:34:02;;;;;;;6.38;3.25;;;16.60;99.90;;;;;;5077120;28;20036;-68
2022/06/08 13:36:36;;;;;;;8.52;3.10;;;16.60;99.90;;;;;;5076379;28;20035;-60
2022/06/08 13:39:38;;;;;;;10.63;3.50;;;16.50;99.90;;;;;;5076298;28;20392;-68